sensor_id;sensor_type;location;lat;lon;timestamp;temperature;humidity
10905;DHT22;5505;51.450;9.254;2024-01-11T00:01:28;-8.10;1.00
10905;DHT22;5505;51.450;9.254;2024-01-11T00:04:15;-8.20;1.00
10905;DHT22;5505;51.450;9.254;2024-01-11T00:07:01;-8.20;1.00
10905;DHT22;5505;51.450;9.254;2024-01-11T00:09:48;-8.20;1.00
10905;DHT22;5505;51.450;9.254;2024-01-11T00:12:36;-8.20;1.00
10905;DHT22;5505;51.450;9.254;2024-01-11T00:15:23;-8.20;1.00
10905;DHT22;5505;51.450;9.254;2024-01-11T00:18:10;-8.20;1.00
10905;DHT22;5505;51.450;9.254;2024-01-11T00:20:57;-5.40;1.00
10905;DHT22;5505;51.450;9.254;2024-01-11T00:23:43;-7.80;1.00
10905;DHT22;5505;51.450;9.254;2024-01-11T00:26:30;-8.30;1.00
10905;DHT22;5505;51.450;9.254;2024-01-11T00:29:18;-8.30;1.00
10905;DHT22;5505;51.450;9.254;2024-01-11T00:32:05;-8.30;1.00
10905;DHT22;5505;51.450;9.254;2024-01-11T00:34:52;-8.30;1.00
10905;DHT22;5505;51.450;9.254;2024-01-11T00:37:39;-8.30;6.00
10905;DHT22;5505;51.450;9.254;2024-01-11T00:40:26;-8.30;1.00
10905;DHT22;5505;51.450;9.254;2024-01-11T00:43:13;-8.30;1.00
10905;DHT22;5505;51.450;9.254;2024-01-11T00:46:01;-8.30;1.00
10905;DHT22;5505;51.450;9.254;2024-01-11T00:48:48;-8.20;1.00
10905;DHT22;5505;51.450;9.254;2024-01-11T00:51:35;-8.30;1.00
10905;DHT22;5505;51.450;9.254;2024-01-11T00:54:21;-8.40;1.00
10905;DHT22;5505;51.450;9.254;2024-01-11T00:57:09;-8.40;1.00
10905;DHT22;5505;51.450;9.254;2024-01-11T00:59:56;-8.40;1.00
10905;DHT22;5505;51.450;9.254;2024-01-11T01:02:44;-6.00;1.00
10905;DHT22;5505;51.450;9.254;2024-01-11T01:08:18;-8.40;1.00
10905;DHT22;5505;51.450;9.254;2024-01-11T01:11:04;-7.90;1.00
10905;DHT22;5505;51.450;9.254;2024-01-11T01:13:52;-7.30;1.00
10905;DHT22;5505;51.450;9.254;2024-01-11T01:16:38;-8.50;1.00
10905;DHT22;5505;51.450;9.254;2024-01-11T01:19:26;-8.50;1.00
10905;DHT22;5505;51.450;9.254;2024-01-11T01:22:13;-8.60;1.00
10905;DHT22;5505;51.450;9.254;2024-01-11T01:25:00;-8.30;1.00
10905;DHT22;5505;51.450;9.254;2024-01-11T01:27:47;-8.60;1.00
10905;DHT22;5505;51.450;9.254;2024-01-11T01:30:34;-8.70;1.00
10905;DHT22;5505;51.450;9.254;2024-01-11T01:33:20;-8.50;10.20
10905;DHT22;5505;51.450;9.254;2024-01-11T01:36:10;-8.50;21.00
10905;DHT22;5505;51.450;9.254;2024-01-11T01:38:57;-8.70;28.60
10905;DHT22;5505;51.450;9.254;2024-01-11T01:41:43;-8.70;40.00
10905;DHT22;5505;51.450;9.254;2024-01-11T01:44:30;-5.60;47.60
10905;DHT22;5505;51.450;9.254;2024-01-11T01:47:17;-8.60;54.00
10905;DHT22;5505;51.450;9.254;2024-01-11T01:50:05;-5.70;57.30
10905;DHT22;5505;51.450;9.254;2024-01-11T01:52:54;-5.70;32.50
10905;DHT22;5505;51.450;9.254;2024-01-11T01:55:41;-8.40;1.00
10905;DHT22;5505;51.450;9.254;2024-01-11T01:58:28;-8.50;1.00
10905;DHT22;5505;51.450;9.254;2024-01-11T02:01:15;-8.60;1.00
10905;DHT22;5505;51.450;9.254;2024-01-11T02:04:02;-8.70;1.00
10905;DHT22;5505;51.450;9.254;2024-01-11T02:06:50;-8.80;1.00
10905;DHT22;5505;51.450;9.254;2024-01-11T02:09:40;-7.90;19.30
10905;DHT22;5505;51.450;9.254;2024-01-11T02:12:27;-9.00;14.60
10905;DHT22;5505;51.450;9.254;2024-01-11T02:15:14;-9.00;21.80
10905;DHT22;5505;51.450;9.254;2024-01-11T02:18:01;-9.00;33.90
10905;DHT22;5505;51.450;9.254;2024-01-11T02:20:48;-9.00;38.70
10905;DHT22;5505;51.450;9.254;2024-01-11T02:23:36;-9.00;43.70
10905;DHT22;5505;51.450;9.254;2024-01-11T02:26:29;-9.00;40.50
10905;DHT22;5505;51.450;9.254;2024-01-11T02:29:16;-9.00;44.80
10905;DHT22;5505;51.450;9.254;2024-01-11T02:32:03;-9.10;45.20
10905;DHT22;5505;51.450;9.254;2024-01-11T02:34:50;-9.00;47.50
10905;DHT22;5505;51.450;9.254;2024-01-11T02:37:37;-9.00;40.20
10905;DHT22;5505;51.450;9.254;2024-01-11T02:40:26;-9.10;38.40
10905;DHT22;5505;51.450;9.254;2024-01-11T02:43:14;-9.10;39.30
10905;DHT22;5505;51.450;9.254;2024-01-11T02:46:01;-9.00;36.90
10905;DHT22;5505;51.450;9.254;2024-01-11T02:48:48;-8.90;24.00
10905;DHT22;5505;51.450;9.254;2024-01-11T02:51:35;-9.00;7.20
10905;DHT22;5505;51.450;9.254;2024-01-11T02:54:22;-8.90;20.40
10905;DHT22;5505;51.450;9.254;2024-01-11T02:57:09;-9.10;33.70
10905;DHT22;5505;51.450;9.254;2024-01-11T02:59:57;-9.20;43.60
10905;DHT22;5505;51.450;9.254;2024-01-11T03:02:44;-9.20;49.70
10905;DHT22;5505;51.450;9.254;2024-01-11T03:05:31;-9.10;55.90
10905;DHT22;5505;51.450;9.254;2024-01-11T03:08:18;-9.20;53.50
10905;DHT22;5505;51.450;9.254;2024-01-11T03:11:05;-9.20;54.90
10905;DHT22;5505;51.450;9.254;2024-01-11T03:13:52;-8.90;23.10
10905;DHT22;5505;51.450;9.254;2024-01-11T03:16:40;-9.10;1.00
10905;DHT22;5505;51.450;9.254;2024-01-11T03:19:27;-9.10;1.00
10905;DHT22;5505;51.450;9.254;2024-01-11T03:22:13;-9.20;1.00
10905;DHT22;5505;51.450;9.254;2024-01-11T03:25:00;-9.10;12.10
10905;DHT22;5505;51.450;9.254;2024-01-11T03:27:47;-8.80;16.60
10905;DHT22;5505;51.450;9.254;2024-01-11T03:30:34;-9.20;33.20
10905;DHT22;5505;51.450;9.254;2024-01-11T03:33:23;-9.30;50.60
10905;DHT22;5505;51.450;9.254;2024-01-11T03:36:10;-9.30;48.10
10905;DHT22;5505;51.450;9.254;2024-01-11T03:38:57;-9.40;29.80
10905;DHT22;5505;51.450;9.254;2024-01-11T03:41:44;-9.50;24.70
10905;DHT22;5505;51.450;9.254;2024-01-11T03:44:31;-9.60;28.70
10905;DHT22;5505;51.450;9.254;2024-01-11T03:47:18;-8.40;47.60
10905;DHT22;5505;51.450;9.254;2024-01-11T03:50:07;-9.50;47.70
10905;DHT22;5505;51.450;9.254;2024-01-11T03:52:53;-9.40;39.70
10905;DHT22;5505;51.450;9.254;2024-01-11T03:55:40;-9.40;10.00
10905;DHT22;5505;51.450;9.254;2024-01-11T03:58:27;-9.50;6.90
10905;DHT22;5505;51.450;9.254;2024-01-11T04:01:14;-9.20;20.50
10905;DHT22;5505;51.450;9.254;2024-01-11T04:04:01;-9.30;25.20
10905;DHT22;5505;51.450;9.254;2024-01-11T04:06:49;-8.30;18.10
10905;DHT22;5505;51.450;9.254;2024-01-11T04:09:37;-9.20;29.80
10905;DHT22;5505;51.450;9.254;2024-01-11T04:12:24;-8.20;37.70
10905;DHT22;5505;51.450;9.254;2024-01-11T04:15:12;-9.20;49.70
10905;DHT22;5505;51.450;9.254;2024-01-11T04:17:58;-8.20;46.80
10905;DHT22;5505;51.450;9.254;2024-01-11T04:20:47;-8.10;37.90
10905;DHT22;5505;51.450;9.254;2024-01-11T04:23:35;-9.20;36.10
10905;DHT22;5505;51.450;9.254;2024-01-11T04:26:22;-9.20;47.50
10905;DHT22;5505;51.450;9.254;2024-01-11T04:29:09;-9.20;56.50
10905;DHT22;5505;51.450;9.254;2024-01-11T04:31:55;-9.20;71.80
10905;DHT22;5505;51.450;9.254;2024-01-11T04:34:43;-5.30;76.60
10905;DHT22;5505;51.450;9.254;2024-01-11T04:37:30;-8.80;60.50
10905;DHT22;5505;51.450;9.254;2024-01-11T04:40:18;-8.90;42.50
10905;DHT22;5505;51.450;9.254;2024-01-11T04:43:05;-6.50;27.50
10905;DHT22;5505;51.450;9.254;2024-01-11T04:48:41;-9.10;24.70
10905;DHT22;5505;51.450;9.254;2024-01-11T04:51:28;-8.20;42.10
10905;DHT22;5505;51.450;9.254;2024-01-11T04:54:15;-9.20;52.60
10905;DHT22;5505;51.450;9.254;2024-01-11T04:57:03;-8.00;65.70
10905;DHT22;5505;51.450;9.254;2024-01-11T04:59:51;-9.20;50.90
10905;DHT22;5505;51.450;9.254;2024-01-11T05:02:38;-9.30;35.90
10905;DHT22;5505;51.450;9.254;2024-01-11T05:05:25;-9.40;43.50
10905;DHT22;5505;51.450;9.254;2024-01-11T05:08:12;-9.50;42.20
10905;DHT22;5505;51.450;9.254;2024-01-11T05:10:59;-9.40;56.60
10905;DHT22;5505;51.450;9.254;2024-01-11T05:13:48;-9.10;56.80
10905;DHT22;5505;51.450;9.254;2024-01-11T05:16:34;-7.50;64.90
10905;DHT22;5505;51.450;9.254;2024-01-11T05:19:22;-9.70;68.40
10905;DHT22;5505;51.450;9.254;2024-01-11T05:22:09;-9.70;75.60
10905;DHT22;5505;51.450;9.254;2024-01-11T05:24:55;-9.40;71.80
10905;DHT22;5505;51.450;9.254;2024-01-11T05:27:42;-9.70;81.60
10905;DHT22;5505;51.450;9.254;2024-01-11T05:30:33;-9.60;80.10
10905;DHT22;5505;51.450;9.254;2024-01-11T05:33:20;-8.30;78.50
10905;DHT22;5505;51.450;9.254;2024-01-11T05:36:07;-9.70;77.80
10905;DHT22;5505;51.450;9.254;2024-01-11T05:38:54;-9.70;84.20
10905;DHT22;5505;51.450;9.254;2024-01-11T05:41:43;-9.60;82.30
10905;DHT22;5505;51.450;9.254;2024-01-11T05:44:30;-9.60;65.80
10905;DHT22;5505;51.450;9.254;2024-01-11T05:47:18;-9.60;54.90
10905;DHT22;5505;51.450;9.254;2024-01-11T05:50:06;-9.50;53.40
10905;DHT22;5505;51.450;9.254;2024-01-11T05:52:54;-9.50;35.70
10905;DHT22;5505;51.450;9.254;2024-01-11T05:55:42;-9.50;29.60
10905;DHT22;5505;51.450;9.254;2024-01-11T05:58:29;-9.50;37.40
10905;DHT22;5505;51.450;9.254;2024-01-11T06:01:16;-9.30;55.00
10905;DHT22;5505;51.450;9.254;2024-01-11T06:04:04;-8.70;81.40
10905;DHT22;5505;51.450;9.254;2024-01-11T06:06:51;-9.10;97.00
10905;DHT22;5505;51.450;9.254;2024-01-11T06:09:38;-9.00;97.20
10905;DHT22;5505;51.450;9.254;2024-01-11T06:12:25;-9.00;97.50
10905;DHT22;5505;51.450;9.254;2024-01-11T06:15:12;-8.90;97.60
10905;DHT22;5505;51.450;9.254;2024-01-11T06:17:59;-8.90;96.10
10905;DHT22;5505;51.450;9.254;2024-01-11T06:20:48;-8.80;93.00
10905;DHT22;5505;51.450;9.254;2024-01-11T06:23:34;-8.80;88.20
10905;DHT22;5505;51.450;9.254;2024-01-11T06:26:21;-8.70;87.50
10905;DHT22;5505;51.450;9.254;2024-01-11T06:29:08;-8.70;77.70
10905;DHT22;5505;51.450;9.254;2024-01-11T06:31:55;-5.90;70.30
10905;DHT22;5505;51.450;9.254;2024-01-11T06:34:42;-8.70;70.80
10905;DHT22;5505;51.450;9.254;2024-01-11T06:37:32;-8.70;57.30
10905;DHT22;5505;51.450;9.254;2024-01-11T06:40:19;-8.70;55.10
10905;DHT22;5505;51.450;9.254;2024-01-11T06:43:06;-8.80;48.90
10905;DHT22;5505;51.450;9.254;2024-01-11T06:45:53;-8.70;53.00
10905;DHT22;5505;51.450;9.254;2024-01-11T06:48:40;-8.70;41.70
10905;DHT22;5505;51.450;9.254;2024-01-11T06:51:26;-8.80;46.10
10905;DHT22;5505;51.450;9.254;2024-01-11T06:54:15;-8.80;35.20
10905;DHT22;5505;51.450;9.254;2024-01-11T06:57:02;-9.00;34.60
10905;DHT22;5505;51.450;9.254;2024-01-11T06:59:48;-9.10;57.50
10905;DHT22;5505;51.450;9.254;2024-01-11T07:02:36;-9.20;76.80
10905;DHT22;5505;51.450;9.254;2024-01-11T07:05:24;-9.20;93.80
10905;DHT22;5505;51.450;9.254;2024-01-11T07:08:11;-9.20;96.80
10905;DHT22;5505;51.450;9.254;2024-01-11T07:11:00;-9.20;99.30
10905;DHT22;5505;51.450;9.254;2024-01-11T07:13:47;-9.20;87.10
10905;DHT22;5505;51.450;9.254;2024-01-11T07:16:34;-9.20;84.50
10905;DHT22;5505;51.450;9.254;2024-01-11T07:19:23;-9.30;90.20
10905;DHT22;5505;51.450;9.254;2024-01-11T07:22:10;-9.30;93.40
10905;DHT22;5505;51.450;9.254;2024-01-11T07:24:57;-9.30;98.80
10905;DHT22;5505;51.450;9.254;2024-01-11T07:27:45;-9.20;94.90
10905;DHT22;5505;51.450;9.254;2024-01-11T07:30:32;-9.20;94.20
10905;DHT22;5505;51.450;9.254;2024-01-11T07:33:19;-9.20;91.60
10905;DHT22;5505;51.450;9.254;2024-01-11T07:36:06;-9.30;92.40
10905;DHT22;5505;51.450;9.254;2024-01-11T07:38:53;-9.30;92.90
10905;DHT22;5505;51.450;9.254;2024-01-11T07:41:40;-9.30;95.90
10905;DHT22;5505;51.450;9.254;2024-01-11T07:44:29;-9.10;94.20
10905;DHT22;5505;51.450;9.254;2024-01-11T07:47:15;-9.10;79.10
10905;DHT22;5505;51.450;9.254;2024-01-11T07:50:03;-9.10;74.10
10905;DHT22;5505;51.450;9.254;2024-01-11T07:52:52;-9.10;76.30
10905;DHT22;5505;51.450;9.254;2024-01-11T07:55:38;-9.20;89.30
10905;DHT22;5505;51.450;9.254;2024-01-11T07:58:25;-9.20;90.80
10905;DHT22;5505;51.450;9.254;2024-01-11T08:01:15;-9.20;91.40
10905;DHT22;5505;51.450;9.254;2024-01-11T08:04:02;-9.20;96.80
10905;DHT22;5505;51.450;9.254;2024-01-11T08:06:49;-9.10;99.90
10905;DHT22;5505;51.450;9.254;2024-01-11T08:09:38;-9.10;99.90
10905;DHT22;5505;51.450;9.254;2024-01-11T08:12:30;-9.10;99.90
10905;DHT22;5505;51.450;9.254;2024-01-11T08:15:17;-9.10;99.90
10905;DHT22;5505;51.450;9.254;2024-01-11T08:18:06;-8.70;99.90
10905;DHT22;5505;51.450;9.254;2024-01-11T08:20:52;-9.00;99.90
10905;DHT22;5505;51.450;9.254;2024-01-11T08:23:40;-9.00;99.90
10905;DHT22;5505;51.450;9.254;2024-01-11T08:26:29;-8.90;99.90
10905;DHT22;5505;51.450;9.254;2024-01-11T08:29:16;-8.90;97.40
10905;DHT22;5505;51.450;9.254;2024-01-11T08:32:05;-8.80;93.10
10905;DHT22;5505;51.450;9.254;2024-01-11T08:34:53;-8.60;90.20
10905;DHT22;5505;51.450;9.254;2024-01-11T08:37:40;-8.60;80.00
10905;DHT22;5505;51.450;9.254;2024-01-11T08:40:27;-8.60;83.70
10905;DHT22;5505;51.450;9.254;2024-01-11T08:43:14;-8.60;91.90
10905;DHT22;5505;51.450;9.254;2024-01-11T08:46:01;-8.50;99.10
10905;DHT22;5505;51.450;9.254;2024-01-11T08:48:48;-5.30;99.90
10905;DHT22;5505;51.450;9.254;2024-01-11T08:51:36;-8.40;99.90
10905;DHT22;5505;51.450;9.254;2024-01-11T08:54:23;-8.10;99.90
10905;DHT22;5505;51.450;9.254;2024-01-11T08:57:10;-8.30;99.90
10905;DHT22;5505;51.450;9.254;2024-01-11T08:59:57;-7.10;99.90
10905;DHT22;5505;51.450;9.254;2024-01-11T09:02:44;-8.20;99.90
10905;DHT22;5505;51.450;9.254;2024-01-11T09:05:31;-8.20;99.90
10905;DHT22;5505;51.450;9.254;2024-01-11T09:08:19;-8.10;99.90
10905;DHT22;5505;51.450;9.254;2024-01-11T09:11:06;-8.10;99.90
10905;DHT22;5505;51.450;9.254;2024-01-11T09:13:53;-8.00;99.90
10905;DHT22;5505;51.450;9.254;2024-01-11T09:16:40;-7.90;99.90
10905;DHT22;5505;51.450;9.254;2024-01-11T09:19:27;-7.80;99.90
10905;DHT22;5505;51.450;9.254;2024-01-11T09:22:14;-7.80;99.90
10905;DHT22;5505;51.450;9.254;2024-01-11T09:25:02;-7.70;99.90
10905;DHT22;5505;51.450;9.254;2024-01-11T09:27:49;-7.60;99.90
10905;DHT22;5505;51.450;9.254;2024-01-11T09:30:36;-7.50;99.90
10905;DHT22;5505;51.450;9.254;2024-01-11T09:33:22;-7.40;99.90
10905;DHT22;5505;51.450;9.254;2024-01-11T09:36:09;-7.20;99.90
10905;DHT22;5505;51.450;9.254;2024-01-11T09:38:56;-7.10;99.90
10905;DHT22;5505;51.450;9.254;2024-01-11T09:41:52;-7.00;99.90
10905;DHT22;5505;51.450;9.254;2024-01-11T09:44:39;-6.90;99.90
10905;DHT22;5505;51.450;9.254;2024-01-11T09:47:27;-6.60;99.90
10905;DHT22;5505;51.450;9.254;2024-01-11T09:50:15;-6.30;99.90
10905;DHT22;5505;51.450;9.254;2024-01-11T09:53:03;-6.20;99.90
10905;DHT22;5505;51.450;9.254;2024-01-11T09:55:51;-5.90;99.90
10905;DHT22;5505;51.450;9.254;2024-01-11T09:58:45;-5.70;99.90
10905;DHT22;5505;51.450;9.254;2024-01-11T10:01:34;-5.60;83.80
10905;DHT22;5505;51.450;9.254;2024-01-11T10:04:21;-5.50;50.90
10905;DHT22;5505;51.450;9.254;2024-01-11T10:07:08;-5.40;15.40
10905;DHT22;5505;51.450;9.254;2024-01-11T10:09:55;-5.30;1.00
10905;DHT22;5505;51.450;9.254;2024-01-11T10:12:43;-5.30;1.00
10905;DHT22;5505;51.450;9.254;2024-01-11T10:15:32;-5.20;1.00
10905;DHT22;5505;51.450;9.254;2024-01-11T10:18:18;-5.10;1.00
10905;DHT22;5505;51.450;9.254;2024-01-11T10:21:09;-5.00;1.00
10905;DHT22;5505;51.450;9.254;2024-01-11T10:23:57;-4.90;1.00
10905;DHT22;5505;51.450;9.254;2024-01-11T10:26:44;-4.80;1.00
10905;DHT22;5505;51.450;9.254;2024-01-11T10:29:32;-4.60;1.00
10905;DHT22;5505;51.450;9.254;2024-01-11T10:32:20;-4.40;1.00
10905;DHT22;5505;51.450;9.254;2024-01-11T10:35:08;-4.40;1.00
10905;DHT22;5505;51.450;9.254;2024-01-11T10:37:56;-4.30;1.00
10905;DHT22;5505;51.450;9.254;2024-01-11T10:40:45;-4.30;1.00
10905;DHT22;5505;51.450;9.254;2024-01-11T10:43:32;-4.20;1.00
10905;DHT22;5505;51.450;9.254;2024-01-11T10:46:21;-4.10;1.00
10905;DHT22;5505;51.450;9.254;2024-01-11T10:49:11;-4.00;1.00
10905;DHT22;5505;51.450;9.254;2024-01-11T10:52:04;-3.90;1.00
10905;DHT22;5505;51.450;9.254;2024-01-11T10:54:52;-3.80;99.90
10905;DHT22;5505;51.450;9.254;2024-01-11T10:57:39;-3.70;99.90
10905;DHT22;5505;51.450;9.254;2024-01-11T11:00:27;-3.60;1.00
10905;DHT22;5505;51.450;9.254;2024-01-11T11:03:16;-3.50;1.00
10905;DHT22;5505;51.450;9.254;2024-01-11T11:06:06;-3.40;1.00
10905;DHT22;5505;51.450;9.254;2024-01-11T11:08:53;-3.40;1.00
10905;DHT22;5505;51.450;9.254;2024-01-11T11:11:41;-3.30;99.90
10905;DHT22;5505;51.450;9.254;2024-01-11T11:14:28;-3.20;99.90
10905;DHT22;5505;51.450;9.254;2024-01-11T11:17:15;-3.10;1.00
10905;DHT22;5505;51.450;9.254;2024-01-11T11:20:02;-3.00;1.00
10905;DHT22;5505;51.450;9.254;2024-01-11T11:23:04;-2.90;1.00
10905;DHT22;5505;51.450;9.254;2024-01-11T11:25:54;-2.80;1.00
10905;DHT22;5505;51.450;9.254;2024-01-11T11:28:42;-2.50;1.00
10905;DHT22;5505;51.450;9.254;2024-01-11T11:31:42;-2.70;1.00
10905;DHT22;5505;51.450;9.254;2024-01-11T11:34:41;-2.60;99.90
10905;DHT22;5505;51.450;9.254;2024-01-11T11:37:30;-2.50;99.90
10905;DHT22;5505;51.450;9.254;2024-01-11T11:40:18;-2.30;1.00
10905;DHT22;5505;51.450;9.254;2024-01-11T11:43:07;-2.20;91.30
10905;DHT22;5505;51.450;9.254;2024-01-11T11:45:54;-2.00;1.00
10905;DHT22;5505;51.450;9.254;2024-01-11T11:48:49;-1.90;1.00
10905;DHT22;5505;51.450;9.254;2024-01-11T11:51:39;-1.70;99.90
10905;DHT22;5505;51.450;9.254;2024-01-11T11:54:26;-1.80;94.20
10905;DHT22;5505;51.450;9.254;2024-01-11T11:57:16;-1.70;48.70
10905;DHT22;5505;51.450;9.254;2024-01-11T12:00:04;-1.70;1.00
10905;DHT22;5505;51.450;9.254;2024-01-11T12:02:52;-1.70;1.00
10905;DHT22;5505;51.450;9.254;2024-01-11T12:05:39;-1.60;1.00
10905;DHT22;5505;51.450;9.254;2024-01-11T12:08:26;-1.50;99.90
10905;DHT22;5505;51.450;9.254;2024-01-11T12:11:13;-1.50;99.90
10905;DHT22;5505;51.450;9.254;2024-01-11T12:14:02;-1.40;36.40
10905;DHT22;5505;51.450;9.254;2024-01-11T12:16:56;-1.40;38.90
10905;DHT22;5505;51.450;9.254;2024-01-11T12:19:42;-1.30;1.00
10905;DHT22;5505;51.450;9.254;2024-01-11T12:22:29;-0.20;1.00
10905;DHT22;5505;51.450;9.254;2024-01-11T12:25:16;-1.40;1.00
10905;DHT22;5505;51.450;9.254;2024-01-11T12:28:04;-0.50;1.00
10905;DHT22;5505;51.450;9.254;2024-01-11T12:30:54;-1.50;1.00
10905;DHT22;5505;51.450;9.254;2024-01-11T12:33:40;-1.60;1.00
10905;DHT22;5505;51.450;9.254;2024-01-11T12:36:28;-1.60;1.00
10905;DHT22;5505;51.450;9.254;2024-01-11T12:39:17;-1.60;1.00
10905;DHT22;5505;51.450;9.254;2024-01-11T12:42:04;-1.50;1.00
10905;DHT22;5505;51.450;9.254;2024-01-11T12:44:51;-1.60;1.00
10905;DHT22;5505;51.450;9.254;2024-01-11T12:47:41;-1.50;1.00
10905;DHT22;5505;51.450;9.254;2024-01-11T12:50:28;-1.40;13.70
10905;DHT22;5505;51.450;9.254;2024-01-11T12:53:18;-1.40;64.60
10905;DHT22;5505;51.450;9.254;2024-01-11T12:56:06;0.10;99.90
10905;DHT22;5505;51.450;9.254;2024-01-11T12:59:05;-1.40;99.90
10905;DHT22;5505;51.450;9.254;2024-01-11T13:01:52;-1.40;99.90
10905;DHT22;5505;51.450;9.254;2024-01-11T13:04:42;-1.40;99.90
10905;DHT22;5505;51.450;9.254;2024-01-11T13:07:30;-1.40;99.90
10905;DHT22;5505;51.450;9.254;2024-01-11T13:10:17;-1.40;99.90
10905;DHT22;5505;51.450;9.254;2024-01-11T13:13:04;-1.40;99.90
10905;DHT22;5505;51.450;9.254;2024-01-11T13:15:53;-1.40;99.90
10905;DHT22;5505;51.450;9.254;2024-01-11T13:18:43;-1.30;99.90
10905;DHT22;5505;51.450;9.254;2024-01-11T13:21:32;-1.30;99.90
10905;DHT22;5505;51.450;9.254;2024-01-11T13:24:19;-1.30;99.90
10905;DHT22;5505;51.450;9.254;2024-01-11T13:27:05;-1.20;99.90
10905;DHT22;5505;51.450;9.254;2024-01-11T13:29:52;2.20;99.90
10905;DHT22;5505;51.450;9.254;2024-01-11T13:32:39;-1.20;99.90
10905;DHT22;5505;51.450;9.254;2024-01-11T13:35:26;-1.20;99.90
10905;DHT22;5505;51.450;9.254;2024-01-11T13:38:14;1.00;99.90
10905;DHT22;5505;51.450;9.254;2024-01-11T13:41:01;-1.10;99.90
10905;DHT22;5505;51.450;9.254;2024-01-11T13:43:48;-1.00;99.90
10905;DHT22;5505;51.450;9.254;2024-01-11T13:46:35;-1.00;99.90
10905;DHT22;5505;51.450;9.254;2024-01-11T13:49:22;-0.90;99.90
10905;DHT22;5505;51.450;9.254;2024-01-11T13:52:10;-0.90;99.90
10905;DHT22;5505;51.450;9.254;2024-01-11T13:54:58;1.00;99.90
10905;DHT22;5505;51.450;9.254;2024-01-11T13:57:46;-0.80;99.90
10905;DHT22;5505;51.450;9.254;2024-01-11T14:00:32;-0.70;99.90
10905;DHT22;5505;51.450;9.254;2024-01-11T14:03:19;-0.60;99.90
10905;DHT22;5505;51.450;9.254;2024-01-11T14:06:06;-0.50;1.00
10905;DHT22;5505;51.450;9.254;2024-01-11T14:08:53;-0.40;1.00
10905;DHT22;5505;51.450;9.254;2024-01-11T14:11:41;1.00;1.00
10905;DHT22;5505;51.450;9.254;2024-01-11T14:14:28;-0.40;24.30
10905;DHT22;5505;51.450;9.254;2024-01-11T14:17:15;-0.40;99.90
10905;DHT22;5505;51.450;9.254;2024-01-11T14:20:02;-0.30;99.90
10905;DHT22;5505;51.450;9.254;2024-01-11T14:22:50;-0.30;1.00
10905;DHT22;5505;51.450;9.254;2024-01-11T14:25:37;-0.40;99.90
10905;DHT22;5505;51.450;9.254;2024-01-11T14:28:25;-0.40;1.00
10905;DHT22;5505;51.450;9.254;2024-01-11T14:31:12;-0.40;1.00
10905;DHT22;5505;51.450;9.254;2024-01-11T14:33:59;-0.40;99.90
10905;DHT22;5505;51.450;9.254;2024-01-11T14:36:46;1.50;1.00
10905;DHT22;5505;51.450;9.254;2024-01-11T14:39:32;0.00;99.90
10905;DHT22;5505;51.450;9.254;2024-01-11T14:42:19;-0.40;99.90
10905;DHT22;5505;51.450;9.254;2024-01-11T14:45:08;-0.50;99.90
10905;DHT22;5505;51.450;9.254;2024-01-11T14:47:55;-0.60;99.90
10905;DHT22;5505;51.450;9.254;2024-01-11T14:50:44;-0.60;56.50
10905;DHT22;5505;51.450;9.254;2024-01-11T14:53:30;0.60;99.90
10905;DHT22;5505;51.450;9.254;2024-01-11T14:56:17;-0.50;88.30
10905;DHT22;5505;51.450;9.254;2024-01-11T14:59:04;-0.50;99.90
10905;DHT22;5505;51.450;9.254;2024-01-11T15:01:53;-0.60;99.90
10905;DHT22;5505;51.450;9.254;2024-01-11T15:04:39;-0.50;1.00
10905;DHT22;5505;51.450;9.254;2024-01-11T15:07:26;-0.60;1.00
10905;DHT22;5505;51.450;9.254;2024-01-11T15:10:13;-0.70;1.00
10905;DHT22;5505;51.450;9.254;2024-01-11T15:13:01;-0.60;1.00
10905;DHT22;5505;51.450;9.254;2024-01-11T15:15:48;0.80;1.00
10905;DHT22;5505;51.450;9.254;2024-01-11T15:18:37;-0.90;1.00
10905;DHT22;5505;51.450;9.254;2024-01-11T15:21:24;-0.60;1.00
10905;DHT22;5505;51.450;9.254;2024-01-11T15:24:11;-1.00;13.40
10905;DHT22;5505;51.450;9.254;2024-01-11T15:26:58;-1.10;51.40
10905;DHT22;5505;51.450;9.254;2024-01-11T15:29:47;-1.10;84.20
10905;DHT22;5505;51.450;9.254;2024-01-11T15:32:35;-1.10;90.30
10905;DHT22;5505;51.450;9.254;2024-01-11T15:35:24;-1.10;89.30
10905;DHT22;5505;51.450;9.254;2024-01-11T15:38:10;-1.20;99.90
10905;DHT22;5505;51.450;9.254;2024-01-11T15:40:57;-1.20;99.90
10905;DHT22;5505;51.450;9.254;2024-01-11T15:43:44;-1.20;99.90
10905;DHT22;5505;51.450;9.254;2024-01-11T15:46:32;-1.20;99.90
10905;DHT22;5505;51.450;9.254;2024-01-11T15:49:20;0.80;99.90
10905;DHT22;5505;51.450;9.254;2024-01-11T15:52:08;1.10;99.90
10905;DHT22;5505;51.450;9.254;2024-01-11T15:54:55;-0.90;99.90
10905;DHT22;5505;51.450;9.254;2024-01-11T15:57:45;1.00;99.90
10905;DHT22;5505;51.450;9.254;2024-01-11T16:00:31;-0.80;99.90
10905;DHT22;5505;51.450;9.254;2024-01-11T16:03:18;-0.60;99.90
10905;DHT22;5505;51.450;9.254;2024-01-11T16:06:05;-0.70;99.90
10905;DHT22;5505;51.450;9.254;2024-01-11T16:08:54;-0.70;99.90
10905;DHT22;5505;51.450;9.254;2024-01-11T16:11:41;-0.70;99.90
10905;DHT22;5505;51.450;9.254;2024-01-11T16:14:28;0.50;99.90
10905;DHT22;5505;51.450;9.254;2024-01-11T16:17:14;-0.70;99.90
10905;DHT22;5505;51.450;9.254;2024-01-11T16:20:01;-0.60;99.90
10905;DHT22;5505;51.450;9.254;2024-01-11T16:22:48;-0.70;99.90
10905;DHT22;5505;51.450;9.254;2024-01-11T16:25:37;-0.60;99.90
10905;DHT22;5505;51.450;9.254;2024-01-11T16:28:24;-0.60;99.90
10905;DHT22;5505;51.450;9.254;2024-01-11T16:31:15;-0.60;99.90
10905;DHT22;5505;51.450;9.254;2024-01-11T16:34:02;-0.70;99.90
10905;DHT22;5505;51.450;9.254;2024-01-11T16:36:49;-0.70;99.90
10905;DHT22;5505;51.450;9.254;2024-01-11T16:39:36;-0.70;99.90
10905;DHT22;5505;51.450;9.254;2024-01-11T16:42:26;-0.60;99.90
10905;DHT22;5505;51.450;9.254;2024-01-11T16:45:13;-0.60;99.90
10905;DHT22;5505;51.450;9.254;2024-01-11T16:48:00;-0.60;99.90
10905;DHT22;5505;51.450;9.254;2024-01-11T16:50:50;-0.60;99.90
10905;DHT22;5505;51.450;9.254;2024-01-11T16:53:41;-0.60;99.90
10905;DHT22;5505;51.450;9.254;2024-01-11T16:56:27;-0.20;99.90
10905;DHT22;5505;51.450;9.254;2024-01-11T16:59:15;-0.60;99.90
10905;DHT22;5505;51.450;9.254;2024-01-11T17:02:03;-0.70;99.90
10905;DHT22;5505;51.450;9.254;2024-01-11T17:04:50;-0.60;99.90
10905;DHT22;5505;51.450;9.254;2024-01-11T17:07:37;-0.60;99.90
10905;DHT22;5505;51.450;9.254;2024-01-11T17:10:26;-0.70;99.90
10905;DHT22;5505;51.450;9.254;2024-01-11T17:13:13;-0.70;99.90
10905;DHT22;5505;51.450;9.254;2024-01-11T17:16:01;-0.70;99.90
10905;DHT22;5505;51.450;9.254;2024-01-11T17:18:51;-0.60;99.90
10905;DHT22;5505;51.450;9.254;2024-01-11T17:21:38;-0.60;99.90
10905;DHT22;5505;51.450;9.254;2024-01-11T17:24:25;-0.70;99.90
10905;DHT22;5505;51.450;9.254;2024-01-11T17:27:11;-0.70;99.90
10905;DHT22;5505;51.450;9.254;2024-01-11T17:30:00;-0.70;99.90
10905;DHT22;5505;51.450;9.254;2024-01-11T17:32:48;-0.70;99.90
10905;DHT22;5505;51.450;9.254;2024-01-11T17:35:37;-0.70;99.90
10905;DHT22;5505;51.450;9.254;2024-01-11T17:38:24;-0.70;99.90
10905;DHT22;5505;51.450;9.254;2024-01-11T17:41:10;-0.80;99.90
10905;DHT22;5505;51.450;9.254;2024-01-11T17:43:57;-0.80;99.90
10905;DHT22;5505;51.450;9.254;2024-01-11T17:46:44;-0.70;99.90
10905;DHT22;5505;51.450;9.254;2024-01-11T17:49:32;-0.70;99.90
10905;DHT22;5505;51.450;9.254;2024-01-11T17:52:19;-0.80;99.90
10905;DHT22;5505;51.450;9.254;2024-01-11T17:55:07;-0.70;99.90
10905;DHT22;5505;51.450;9.254;2024-01-11T17:57:54;-0.70;99.90
10905;DHT22;5505;51.450;9.254;2024-01-11T18:00:41;-0.70;99.90
10905;DHT22;5505;51.450;9.254;2024-01-11T18:03:27;0.80;99.90
10905;DHT22;5505;51.450;9.254;2024-01-11T18:06:16;-0.70;99.90